createdAt,value
2018-11-01T00:00:02.639Z,101537.44
2018-11-01T00:02:31.073Z,101535.35
2018-11-01T00:04:59.497Z,101535.19
2018-11-01T00:07:27.972Z,101527.66
2018-11-01T00:09:56.383Z,101530.88
2018-11-01T00:12:24.811Z,101538.31
2018-11-01T00:14:53.212Z,101545.09
2018-11-01T00:17:21.642Z,101535.03
2018-11-01T00:19:50.028Z,101534.36
2018-11-01T00:22:18.478Z,101539.89
2018-11-01T00:24:46.904Z,101537.83
2018-11-01T00:27:15.343Z,101538.95
2018-11-01T00:29:43.765Z,101548.30
2018-11-01T00:32:12.199Z,101545.18
2018-11-01T00:34:40.605Z,101547.34
2018-11-01T00:37:09.024Z,101543.92
2018-11-01T00:39:37.437Z,101547.48
2018-11-01T00:42:06.297Z,101543.92
2018-11-01T00:44:34.903Z,101540.97
2018-11-01T00:47:03.331Z,101531.87
2018-11-01T00:49:31.731Z,101532.61
2018-11-01T00:52:00.173Z,101529.95
2018-11-01T00:54:28.594Z,101536.13
2018-11-01T00:56:57.035Z,101530.95
2018-11-01T00:59:25.454Z,101535.27
2018-11-01T01:01:53.900Z,101534.32
2018-11-01T01:04:22.312Z,101527.98
2018-11-01T01:06:50.727Z,101530.64
2018-11-01T01:09:19.182Z,101533.96
2018-11-01T01:11:47.591Z,101537.03
2018-11-01T01:14:16.042Z,101531.28
2018-11-01T01:16:44.462Z,101530.16
2018-11-01T01:19:12.895Z,101529.34
2018-11-01T01:21:41.316Z,101525.96
2018-11-01T01:24:09.795Z,101523.94
2018-11-01T01:26:38.228Z,101534.13
2018-11-01T01:29:06.802Z,101524.88
2018-11-01T01:31:35.257Z,101527.37
2018-11-01T01:34:03.701Z,101533.22
2018-11-01T01:36:32.141Z,101538.27
2018-11-01T01:39:00.584Z,101533.78
2018-11-01T01:41:28.999Z,101542.83
2018-11-01T01:43:57.468Z,101532.86
2018-11-01T01:46:25.891Z,101533.85
2018-11-01T01:48:54.317Z,101534.44
2018-11-01T01:51:22.719Z,101533.42
2018-11-01T01:53:51.156Z,101530.58
2018-11-01T01:56:19.568Z,101529.80
2018-11-01T01:58:48.022Z,101530.02
2018-11-01T02:01:17.533Z,101538.05
2018-11-01T02:03:45.972Z,101527.31
2018-11-01T02:06:14.389Z,101532.50
2018-11-01T02:08:43.044Z,101524.84
2018-11-01T02:11:11.463Z,101517.09
2018-11-01T02:13:39.898Z,101515.02
2018-11-01T02:16:08.339Z,101511.90
2018-11-01T02:18:36.774Z,101507.63
2018-11-01T02:21:05.751Z,101507.63
2018-11-01T02:23:34.197Z,101505.93
2018-11-01T02:26:02.643Z,101504.23
2018-11-01T02:28:31.104Z,101489.31
2018-11-01T02:30:59.528Z,101485.04
2018-11-01T02:33:27.959Z,101493.77
2018-11-01T02:35:56.389Z,101503.53
2018-11-01T02:38:24.863Z,101494.78
2018-11-01T02:40:53.302Z,101500.59
2018-11-01T02:43:21.783Z,101495.88
2018-11-01T02:45:50.197Z,101497.07
2018-11-01T02:48:18.630Z,101495.92
2018-11-01T02:50:47.038Z,101480.42
2018-11-01T02:53:15.497Z,101490.72
2018-11-01T02:55:43.923Z,101494.77
2018-11-01T02:58:12.363Z,101492.18
2018-11-01T03:00:40.778Z,101494.11
2018-11-01T03:03:09.212Z,101485.63
2018-11-01T03:05:37.624Z,101488.06
2018-11-01T03:08:06.315Z,101489.64
2018-11-01T03:10:34.753Z,101487.64
2018-11-01T03:13:03.191Z,101485.25
2018-11-01T03:15:31.613Z,101474.13
2018-11-01T03:18:00.044Z,101478.44
2018-11-01T03:20:28.478Z,101470.31
2018-11-01T03:22:57.761Z,101471.89
2018-11-01T03:25:26.163Z,101476.57
2018-11-01T03:27:54.609Z,101469.16
2018-11-01T03:30:23.037Z,101465.20
2018-11-01T03:32:51.486Z,101463.06
2018-11-01T03:35:19.913Z,101464.00
2018-11-01T03:37:48.373Z,101474.65
2018-11-01T03:40:16.775Z,101481.20
2018-11-01T03:42:45.252Z,101472.39
2018-11-01T03:45:14.044Z,101470.59
2018-11-01T03:47:42.994Z,101462.70
2018-11-01T03:50:12.181Z,101457.23
2018-11-01T03:52:40.623Z,101460.94
2018-11-01T03:55:10.507Z,101463.29
2018-11-01T03:57:38.939Z,101454.97
2018-11-01T04:00:10.231Z,101456.52
2018-11-01T04:02:38.701Z,101449.20
2018-11-01T04:05:07.147Z,101445.92
2018-11-01T04:07:35.574Z,101446.93
2018-11-01T04:10:04.723Z,101443.23
2018-11-01T04:12:33.144Z,101435.14
2018-11-01T04:15:01.633Z,101435.14
2018-11-01T04:17:30.021Z,101436.27
2018-11-01T04:19:58.498Z,101422.00
2018-11-01T04:22:26.930Z,101420.01
2018-11-01T04:24:55.358Z,101413.01
2018-11-01T04:27:23.757Z,101406.47
2018-11-01T04:29:52.198Z,101408.89
2018-11-01T04:32:20.624Z,101410.63
2018-11-01T04:34:49.084Z,101403.53
2018-11-01T04:37:17.511Z,101400.38
2018-11-01T04:39:45.960Z,101400.02
2018-11-01T04:42:14.391Z,101395.03
2018-11-01T04:44:42.832Z,101395.72
2018-11-01T04:47:11.341Z,101386.55
2018-11-01T04:49:39.741Z,101384.81
2018-11-01T04:52:08.211Z,101383.88
2018-11-01T04:54:36.655Z,101380.30
2018-11-01T04:57:05.040Z,101375.22
2018-11-01T04:59:33.474Z,101371.95
2018-11-01T05:02:01.914Z,101368.98
2018-11-01T05:04:30.354Z,101372.03
2018-11-01T05:06:58.854Z,101373.19
2018-11-01T05:09:27.276Z,101371.19
2018-11-01T05:11:55.704Z,101370.22
2018-11-01T05:14:24.138Z,101375.08
2018-11-01T05:16:52.557Z,101370.06
2018-11-01T05:19:21.012Z,101374.48
2018-11-01T05:21:49.432Z,101370.89
2018-11-01T05:24:17.881Z,101369.61
2018-11-01T05:26:46.333Z,101369.17
2018-11-01T05:29:14.794Z,101373.30
2018-11-01T05:31:43.229Z,101369.42
2018-11-01T05:34:11.671Z,101372.52
2018-11-01T05:36:40.096Z,101367.84
2018-11-01T05:39:10.228Z,101369.32
2018-11-01T05:41:38.663Z,101373.07
2018-11-01T05:44:07.191Z,101365.78
2018-11-01T05:46:35.606Z,101356.97
2018-11-01T05:49:04.054Z,101353.34
2018-11-01T05:51:32.497Z,101355.56
2018-11-01T05:54:00.909Z,101353.34
2018-11-01T05:56:29.367Z,101346.35
2018-11-01T05:58:57.773Z,101353.55
2018-11-01T06:01:32.472Z,101350.09
2018-11-01T06:04:01.035Z,101348.77
2018-11-01T06:06:29.478Z,101344.95
2018-11-01T06:08:57.931Z,101351.11
2018-11-01T06:11:26.373Z,101345.80
2018-11-01T06:13:54.820Z,101353.16
2018-11-01T06:16:23.261Z,101353.05
2018-11-01T06:18:51.718Z,101356.16
2018-11-01T06:21:20.189Z,101348.47
2018-11-01T06:23:48.606Z,101349.51
2018-11-01T06:26:17.669Z,101350.08
2018-11-01T06:28:46.107Z,101345.22
2018-11-01T06:31:14.573Z,101331.44
2018-11-01T06:33:43.009Z,101330.94
2018-11-01T06:36:14.651Z,101331.05
2018-11-01T06:38:43.091Z,101328.36
2018-11-01T06:41:11.538Z,101338.05
2018-11-01T06:43:40.013Z,101334.20
2018-11-01T06:46:08.480Z,101337.25
2018-11-01T06:48:36.938Z,101337.08
2018-11-01T06:51:05.847Z,101343.42
2018-11-01T06:53:34.266Z,101345.33
2018-11-01T06:56:02.681Z,101352.05
2018-11-01T06:58:31.247Z,101349.34
2018-11-01T07:00:59.568Z,101352.89
2018-11-01T07:03:28.025Z,101356.67
2018-11-01T07:05:56.464Z,101359.91
2018-11-01T07:08:24.933Z,101363.38
2018-11-01T07:10:53.395Z,101360.70
2018-11-01T07:13:21.831Z,101348.52
2018-11-01T07:15:50.262Z,101335.81
2018-11-01T07:18:18.703Z,101327.44
2018-11-01T07:20:47.130Z,101318.47
2018-11-01T07:23:15.588Z,101305.20
2018-11-01T07:25:44.036Z,101293.96
2018-11-01T07:28:12.486Z,101298.06
2018-11-01T07:30:40.905Z,101302.42
2018-11-01T07:33:09.352Z,101297.16
2018-11-01T07:35:37.770Z,101294.52
2018-11-01T07:38:06.477Z,101297.75
2018-11-01T07:40:34.906Z,101292.59
2018-11-01T07:43:03.407Z,101295.53
2018-11-01T07:45:31.841Z,101293.86
2018-11-01T07:48:00.294Z,101278.42
2018-11-01T07:50:28.728Z,101262.93
2018-11-01T07:52:57.284Z,101264.92
2018-11-01T07:55:25.644Z,101247.84
2018-11-01T07:57:54.101Z,101243.30
2018-11-01T08:00:22.508Z,101238.83
2018-11-01T08:02:50.947Z,101232.11
2018-11-01T08:05:19.352Z,101236.19
2018-11-01T08:07:47.813Z,101243.73
2018-11-01T08:10:18.369Z,101252.80
2018-11-01T08:12:47.621Z,101248.98
2018-11-01T08:15:17.614Z,101250.58
2018-11-01T08:17:46.050Z,101256.92
2018-11-01T08:20:15.402Z,101253.63
2018-11-01T08:22:43.648Z,101250.47
2018-11-01T08:25:12.764Z,101245.09
2018-11-01T08:27:41.860Z,101240.17
2018-11-01T08:30:13.470Z,101221.51
2018-11-01T08:32:41.895Z,101219.16
2018-11-01T08:35:11.392Z,101229.31
2018-11-01T08:37:40.563Z,101240.34
2018-11-01T08:40:09.709Z,101238.30
2018-11-01T08:42:38.389Z,101231.03
2018-11-01T08:45:08.953Z,101219.14
2018-11-01T08:47:37.676Z,101211.51
2018-11-01T08:50:07.285Z,101218.45
2018-11-01T08:52:35.661Z,101226.27
2018-11-01T08:55:04.105Z,101223.70
2018-11-01T08:57:32.511Z,101221.69
2018-11-01T09:00:00.959Z,101230.00
2018-11-01T09:02:29.390Z,101231.36
2018-11-01T09:04:57.821Z,101233.38
2018-11-01T09:07:26.255Z,101236.27
2018-11-01T09:09:54.740Z,101228.29
2018-11-01T09:12:23.149Z,101232.34
2018-11-01T09:14:51.594Z,101230.80
2018-11-01T09:17:20.005Z,101219.41
2018-11-01T09:19:48.468Z,101212.57
2018-11-01T09:22:16.903Z,101212.70
2018-11-01T09:24:45.596Z,101216.55
2018-11-01T09:27:14.026Z,101210.67
2018-11-01T09:29:42.467Z,101194.95
2018-11-01T09:32:10.885Z,101187.97
2018-11-01T09:34:39.322Z,101184.66
2018-11-01T09:37:07.750Z,101185.67
2018-11-01T09:39:36.225Z,101186.67
2018-11-01T09:42:04.757Z,101179.90
2018-11-01T09:44:33.195Z,101176.98
2018-11-01T09:47:01.950Z,101174.62
2018-11-01T09:49:30.131Z,101180.55
2018-11-01T09:51:58.560Z,101170.15
2018-11-01T09:54:27.176Z,101166.36
2018-11-01T09:56:55.633Z,101147.75
2018-11-01T09:59:24.060Z,101147.75
2018-11-01T10:01:52.544Z,101147.70
2018-11-01T10:04:20.964Z,101142.23
2018-11-01T10:06:49.471Z,101130.64
2018-11-01T10:09:17.864Z,101134.28
2018-11-01T10:11:46.311Z,101135.14
2018-11-01T10:14:14.721Z,101134.91
2018-11-01T10:16:43.341Z,101148.05
2018-11-01T10:19:11.877Z,101152.14
2018-11-01T10:21:40.341Z,101154.50
2018-11-01T10:24:09.189Z,101152.86
2018-11-01T10:26:37.634Z,101157.11
2018-11-01T10:29:06.080Z,101150.15
2018-11-01T10:31:34.527Z,101134.22
2018-11-01T10:34:03.069Z,101136.71
2018-11-01T10:36:31.521Z,101141.27
2018-11-01T10:38:59.941Z,101129.72
2018-11-01T10:41:28.395Z,101118.67
2018-11-01T10:43:56.857Z,101122.62
2018-11-01T10:46:25.330Z,101104.86
2018-11-01T10:48:53.766Z,101101.73
2018-11-01T10:51:22.224Z,101099.58
2018-11-01T10:53:50.711Z,101088.23
2018-11-01T10:56:19.092Z,101081.33
2018-11-01T10:58:47.545Z,101072.89
2018-11-01T11:01:21.209Z,101060.16
2018-11-01T11:03:49.659Z,101047.95
2018-11-01T11:06:18.170Z,101044.09
2018-11-01T11:08:46.586Z,101044.32
2018-11-01T11:11:15.018Z,101045.67
2018-11-01T11:13:43.468Z,101030.95
2018-11-01T11:16:11.887Z,101032.11
2018-11-01T11:18:40.363Z,101032.41
2018-11-01T11:21:09.117Z,101041.78
2018-11-01T11:23:37.293Z,101046.02
2018-11-01T11:26:05.740Z,101053.81
2018-11-01T11:28:34.223Z,101052.33
2018-11-01T11:31:02.647Z,101045.03
2018-11-01T11:33:31.106Z,101041.16
2018-11-01T11:35:59.713Z,101043.68
2018-11-01T11:38:28.003Z,101027.68
2018-11-01T11:40:56.425Z,101021.03
2018-11-01T11:43:24.919Z,101021.25
2018-11-01T11:45:53.355Z,101018.66
2018-11-01T11:48:21.805Z,101011.24
2018-11-01T11:50:50.235Z,101011.16
2018-11-01T11:53:18.688Z,101013.05
2018-11-01T11:55:47.136Z,101007.55
2018-11-01T11:58:15.613Z,101009.13
2018-11-01T12:00:44.065Z,101010.37
2018-11-01T12:03:12.491Z,101015.26
2018-11-01T12:05:40.964Z,101015.75
2018-11-01T12:08:09.456Z,101002.47
2018-11-01T12:10:37.919Z,100995.33
2018-11-01T12:13:06.534Z,101002.41
2018-11-01T12:15:35.020Z,101008.91
2018-11-01T12:18:03.459Z,101001.45
2018-11-01T12:20:31.905Z,100995.67
2018-11-01T12:23:00.353Z,100992.84
2018-11-01T12:25:28.796Z,100984.46
2018-11-01T12:27:57.231Z,100983.50
2018-11-01T12:30:25.662Z,100986.41
2018-11-01T12:32:54.088Z,100977.38
2018-11-01T12:35:22.563Z,100970.89
2018-11-01T12:37:51.023Z,100965.41
2018-11-01T12:40:19.464Z,100968.09
2018-11-01T12:42:47.898Z,100960.26
2018-11-01T12:45:16.353Z,100957.81
2018-11-01T12:47:44.795Z,100950.02
2018-11-01T12:50:14.416Z,100942.41
2018-11-01T12:52:42.866Z,100934.64
2018-11-01T12:55:11.653Z,100942.63
2018-11-01T12:57:40.084Z,100937.59
2018-11-01T13:00:10.160Z,100940.20
2018-11-01T13:02:38.728Z,100929.27
2018-11-01T13:05:07.111Z,100924.55
2018-11-01T13:07:35.549Z,100925.08
2018-11-01T13:10:04.029Z,100931.66
2018-11-01T13:12:32.509Z,100937.52
2018-11-01T13:15:00.934Z,100937.52
2018-11-01T13:17:29.381Z,100937.34
2018-11-01T13:19:57.813Z,100933.42
2018-11-01T13:22:26.272Z,100927.12
2018-11-01T13:24:54.715Z,100919.98
2018-11-01T13:27:23.164Z,100911.47
2018-11-01T13:29:51.614Z,100905.27
2018-11-01T13:32:20.057Z,100899.92
2018-11-01T13:34:48.582Z,100887.63
2018-11-01T13:37:16.970Z,100882.88
2018-11-01T13:39:45.579Z,100885.83
2018-11-01T13:42:13.933Z,100882.13
2018-11-01T13:44:42.353Z,100890.64
2018-11-01T13:47:12.887Z,100881.80
2018-11-01T13:49:42.328Z,100883.88
2018-11-01T13:52:12.238Z,100876.17
2018-11-01T13:54:42.962Z,100868.56
2018-11-01T13:57:11.512Z,100871.73
2018-11-01T13:59:39.989Z,100881.00
2018-11-01T14:02:08.405Z,100888.34
2018-11-01T14:04:36.871Z,100886.45
2018-11-01T14:07:05.496Z,100886.93
2018-11-01T14:09:33.969Z,100884.33
2018-11-01T14:12:02.387Z,100883.00
2018-11-01T14:14:31.287Z,100875.34
2018-11-01T14:16:59.292Z,100866.55
2018-11-01T14:19:27.760Z,100874.53
2018-11-01T14:21:56.185Z,100873.22
2018-11-01T14:24:24.674Z,100867.54
2018-11-01T14:26:53.072Z,100870.02
2018-11-01T14:29:21.508Z,100872.37
2018-11-01T14:31:49.930Z,100863.42
2018-11-01T14:34:18.370Z,100873.99
2018-11-01T14:36:46.788Z,100873.82
2018-11-01T14:39:15.220Z,100876.09
2018-11-01T14:41:43.640Z,100882.65
2018-11-01T14:44:12.137Z,100881.76
2018-11-01T14:46:40.572Z,100890.86
2018-11-01T14:49:08.984Z,100883.20
2018-11-01T14:51:37.428Z,100872.69
2018-11-01T14:54:06.639Z,100864.13
2018-11-01T14:56:36.063Z,100849.52
2018-11-01T14:59:04.596Z,100832.53
2018-11-01T15:01:31.285Z,100835.12
2018-11-01T15:03:59.721Z,100836.56
2018-11-01T15:06:28.221Z,100834.31
2018-11-01T15:08:56.628Z,100837.19
2018-11-01T15:11:25.074Z,100844.47
2018-11-01T15:13:53.493Z,100841.89
2018-11-01T15:16:21.947Z,100830.86
2018-11-01T15:18:50.613Z,100831.38
2018-11-01T15:21:19.113Z,100830.33
2018-11-01T15:23:47.609Z,100832.08
2018-11-01T15:26:16.252Z,100836.45
2018-11-01T15:28:44.634Z,100834.18
2018-11-01T15:31:13.076Z,100827.83
2018-11-01T15:33:41.666Z,100831.77
2018-11-01T15:36:10.003Z,100836.25
2018-11-01T15:38:38.433Z,100826.46
2018-11-01T15:41:10.963Z,100826.00
2018-11-01T15:43:39.809Z,100821.15
2018-11-01T15:46:08.952Z,100830.72
2018-11-01T15:48:37.379Z,100829.95
2018-11-01T15:51:06.749Z,100824.77
2018-11-01T15:53:35.165Z,100820.75
2018-11-01T15:56:03.629Z,100813.94
2018-11-01T15:58:32.098Z,100808.28
2018-11-01T16:01:00.536Z,100815.23
2018-11-01T16:03:29.045Z,100820.86
2018-11-01T16:05:57.434Z,100812.81
2018-11-01T16:08:25.901Z,100796.55
2018-11-01T16:10:54.364Z,100795.12
2018-11-01T16:13:22.861Z,100800.36
2018-11-01T16:15:51.284Z,100816.25
2018-11-01T16:18:19.745Z,100826.13
2018-11-01T16:20:48.162Z,100835.39
2018-11-01T16:23:16.639Z,100836.05
2018-11-01T16:25:45.093Z,100841.61
2018-11-01T16:28:13.576Z,100840.70
2018-11-01T16:30:41.991Z,100832.05
2018-11-01T16:33:10.430Z,100831.14
2018-11-01T16:35:38.847Z,100835.68
2018-11-01T16:38:07.301Z,100834.25
2018-11-01T16:40:35.734Z,100821.99
2018-11-01T16:43:04.194Z,100818.92
2018-11-01T16:45:32.631Z,100816.61
2018-11-01T16:48:01.117Z,100816.65
2018-11-01T16:50:29.549Z,100805.50
2018-11-01T16:52:58.007Z,100802.58
2018-11-01T16:55:26.428Z,100804.14
2018-11-01T16:57:54.878Z,100800.06
2018-11-01T17:00:23.321Z,100807.39
2018-11-01T17:02:51.776Z,100812.00
2018-11-01T17:05:20.213Z,100809.97
2018-11-01T17:07:48.640Z,100809.34
2018-11-01T17:10:19.602Z,100810.70
2018-11-01T17:12:48.019Z,100799.08
2018-11-01T17:15:16.538Z,100797.09
2018-11-01T17:17:45.601Z,100806.16
2018-11-01T17:20:14.135Z,100811.99
2018-11-01T17:22:43.015Z,100815.30
2018-11-01T17:25:11.524Z,100820.40
2018-11-01T17:27:39.913Z,100830.28
2018-11-01T17:30:09.319Z,100840.71
2018-11-01T17:32:43.130Z,100845.28
2018-11-01T17:35:11.608Z,100852.06
2018-11-01T17:37:40.031Z,100849.45
2018-11-01T17:40:08.972Z,100843.69
2018-11-01T17:42:37.457Z,100837.78
2018-11-01T17:45:06.953Z,100834.45
2018-11-01T17:47:35.392Z,100834.14
2018-11-01T17:50:04.210Z,100832.25
2018-11-01T17:52:32.633Z,100839.96
2018-11-01T17:55:01.126Z,100839.33
2018-11-01T17:57:29.544Z,100833.05
2018-11-01T17:59:57.982Z,100824.00
2018-11-01T18:02:26.613Z,100808.40
2018-11-01T18:04:54.981Z,100815.76
2018-11-01T18:07:23.449Z,100813.20
2018-11-01T18:09:51.876Z,100819.31
2018-11-01T18:12:20.373Z,100816.25
2018-11-01T18:14:48.785Z,100810.86
2018-11-01T18:17:17.247Z,100807.88
2018-11-01T18:19:45.681Z,100804.55
2018-11-01T18:22:14.137Z,100815.88
2018-11-01T18:24:42.593Z,100820.27
2018-11-01T18:27:11.057Z,100822.59
2018-11-01T18:29:39.482Z,100830.64
2018-11-01T18:32:08.096Z,100834.20
2018-11-01T18:34:36.437Z,100828.18
2018-11-01T18:37:04.972Z,100816.73
2018-11-01T18:39:33.551Z,100815.93
2018-11-01T18:42:01.901Z,100821.97
2018-11-01T18:44:30.349Z,100806.23
2018-11-01T18:46:58.824Z,100811.55
2018-11-01T18:49:27.243Z,100808.40
2018-11-01T18:51:55.706Z,100808.16
2018-11-01T18:54:24.189Z,100813.11
2018-11-01T18:56:52.626Z,100823.30
2018-11-01T18:59:21.066Z,100817.09
2018-11-01T19:01:49.517Z,100812.02
2018-11-01T19:04:17.961Z,100820.04
2018-11-01T19:06:46.396Z,100827.89
2018-11-01T19:09:14.864Z,100819.59
2018-11-01T19:11:43.281Z,100823.85
2018-11-01T19:14:11.761Z,100822.17
2018-11-01T19:16:40.233Z,100820.25
2018-11-01T19:19:08.684Z,100817.15
2018-11-01T19:21:37.134Z,100806.56
2018-11-01T19:24:05.659Z,100818.95
2018-11-01T19:26:34.106Z,100811.89
2018-11-01T19:29:02.550Z,100830.39
2018-11-01T19:31:30.994Z,100832.09
2018-11-01T19:33:59.505Z,100831.92
2018-11-01T19:36:27.879Z,100830.57
2018-11-01T19:38:56.344Z,100826.38
2018-11-01T19:41:24.780Z,100836.17
2018-11-01T19:43:53.273Z,100839.40
2018-11-01T19:46:21.708Z,100851.92
2018-11-01T19:48:50.151Z,100854.98
2018-11-01T19:51:18.579Z,100851.94
2018-11-01T19:53:47.044Z,100852.12
2018-11-01T19:56:15.467Z,100844.83
2018-11-01T19:58:43.953Z,100851.08
2018-11-01T20:01:12.377Z,100849.03
2018-11-01T20:03:41.623Z,100845.98
2018-11-01T20:06:10.041Z,100842.11
2018-11-01T20:08:38.513Z,100838.90
2018-11-01T20:11:06.965Z,100830.13
2018-11-01T20:13:35.451Z,100833.48
2018-11-01T20:16:03.870Z,100843.61
2018-11-01T20:18:32.403Z,100848.00
2018-11-01T20:21:00.753Z,100854.76
2018-11-01T20:23:29.199Z,100855.96
2018-11-01T20:25:57.624Z,100858.16
2018-11-01T20:28:26.048Z,100865.44
2018-11-01T20:30:54.526Z,100871.88
2018-11-01T20:33:23.019Z,100875.61
2018-11-01T20:35:51.419Z,100866.98
2018-11-01T20:38:19.868Z,100867.81
2018-11-01T20:40:48.309Z,100861.53
2018-11-01T20:43:16.759Z,100855.80
2018-11-01T20:45:45.221Z,100856.81
2018-11-01T20:48:13.664Z,100855.83
2018-11-01T20:50:42.120Z,100868.52
2018-11-01T20:53:10.560Z,100877.12
2018-11-01T20:55:38.985Z,100876.79
2018-11-01T20:58:07.411Z,100882.20
2018-11-01T21:00:35.997Z,100891.72
2018-11-01T21:03:04.439Z,100890.32
2018-11-01T21:05:32.886Z,100898.06
2018-11-01T21:08:01.401Z,100889.25
2018-11-01T21:10:29.900Z,100884.36
2018-11-01T21:12:58.320Z,100890.95
2018-11-01T21:15:26.764Z,100887.41
2018-11-01T21:17:55.214Z,100887.43
2018-11-01T21:20:23.661Z,100880.19
2018-11-01T21:22:52.090Z,100887.10
2018-11-01T21:25:20.578Z,100892.19
2018-11-01T21:27:49.013Z,100894.09
2018-11-01T21:30:17.493Z,100894.60
2018-11-01T21:32:46.032Z,100900.34
2018-11-01T21:35:14.576Z,100904.91
2018-11-01T21:37:42.931Z,100904.25
2018-11-01T21:40:12.012Z,100909.66
2018-11-01T21:42:40.527Z,100917.97
2018-11-01T21:45:10.845Z,100914.90
2018-11-01T21:47:39.357Z,100926.25
2018-11-01T21:50:07.825Z,100925.92
2018-11-01T21:52:36.265Z,100932.52
2018-11-01T21:55:04.719Z,100927.25
2018-11-01T21:57:33.269Z,100936.06
2018-11-01T22:00:02.061Z,100936.90
2018-11-01T22:02:30.508Z,100946.02
2018-11-01T22:04:58.926Z,100958.70
2018-11-01T22:07:27.417Z,100965.97
2018-11-01T22:09:55.853Z,100965.13
2018-11-01T22:12:24.296Z,100964.10
2018-11-01T22:14:52.714Z,100963.41
2018-11-01T22:17:21.192Z,100972.55
2018-11-01T22:19:49.609Z,100973.77
2018-11-01T22:22:18.052Z,100981.05
2018-11-01T22:24:46.476Z,100974.09
2018-11-01T22:27:14.958Z,100982.73
2018-11-01T22:29:43.389Z,100979.13
2018-11-01T22:32:11.833Z,100985.38
2018-11-01T22:34:40.257Z,101000.23
2018-11-01T22:37:08.735Z,101001.25
2018-11-01T22:39:37.181Z,100995.52
2018-11-01T22:42:06.277Z,100991.78
2018-11-01T22:44:34.695Z,100996.03
2018-11-01T22:47:03.141Z,100997.20
2018-11-01T22:49:31.548Z,100991.09
2018-11-01T22:51:59.980Z,101001.27
2018-11-01T22:54:28.420Z,101001.09
2018-11-01T22:56:56.886Z,101001.97
2018-11-01T22:59:25.328Z,101005.84
2018-11-01T23:01:53.777Z,101003.33
2018-11-01T23:04:22.228Z,101010.94
2018-11-01T23:06:50.647Z,101009.41
2018-11-01T23:09:19.119Z,101009.27
2018-11-01T23:11:47.564Z,101014.89
2018-11-01T23:14:16.110Z,101023.86
2018-11-01T23:16:44.536Z,101029.94
2018-11-01T23:19:13.302Z,101038.44
2018-11-01T23:21:41.721Z,101044.05
2018-11-01T23:24:10.166Z,101050.14
2018-11-01T23:26:38.635Z,101059.82
2018-11-01T23:29:07.078Z,101063.94
2018-11-01T23:31:35.504Z,101077.49
2018-11-01T23:34:04.191Z,101077.16
2018-11-01T23:36:38.012Z,101078.38
2018-11-01T23:39:14.084Z,101083.28
2018-11-01T23:41:48.254Z,101111.96
2018-11-01T23:44:22.276Z,101108.73
2018-11-01T23:46:56.125Z,101094.17
2018-11-01T23:49:40.619Z,101091.97
2018-11-01T23:52:13.467Z,101090.75
2018-11-01T23:54:41.929Z,101092.12
2018-11-01T23:57:10.336Z,101086.05
2018-11-01T23:59:38.800Z,101087.86
